createdAt,value
2023-05-14T00:01:40.627Z,98.98
2023-05-14T00:04:07.608Z,100.00
2023-05-14T00:06:34.508Z,99.28
2023-05-14T00:09:01.192Z,100.00
2023-05-14T00:11:28.105Z,100.00
2023-05-14T00:13:54.936Z,100.00
2023-05-14T00:16:21.778Z,100.00
2023-05-14T00:18:48.690Z,100.00
2023-05-14T00:21:15.576Z,100.00
2023-05-14T00:23:42.434Z,100.00
2023-05-14T00:26:09.312Z,100.00
2023-05-14T00:28:37.146Z,100.00
2023-05-14T00:31:04.164Z,100.00
2023-05-14T00:33:31.046Z,100.00
2023-05-14T00:35:57.844Z,100.00
2023-05-14T00:38:27.775Z,98.10
2023-05-14T00:40:54.694Z,99.22
2023-05-14T00:43:22.696Z,97.77
2023-05-14T00:45:54.554Z,99.72
2023-05-14T00:48:23.643Z,100.00
2023-05-14T00:50:51.186Z,100.00
2023-05-14T00:53:19.385Z,100.00
2023-05-14T00:55:47.529Z,100.00
2023-05-14T00:58:14.730Z,100.00
2023-05-14T01:00:42.211Z,100.00
2023-05-14T01:03:09.545Z,100.00
2023-05-14T01:05:44.289Z,100.00
2023-05-14T01:08:18.790Z,100.00
2023-05-14T01:10:55.079Z,100.00
2023-05-14T01:13:28.723Z,100.00
2023-05-14T01:15:57.845Z,100.00
2023-05-14T01:18:41.631Z,100.00
2023-05-14T01:21:35.247Z,100.00
2023-05-14T01:24:02.093Z,100.00
2023-05-14T01:26:31.512Z,100.00
2023-05-14T01:29:12.449Z,100.00
2023-05-14T01:31:41.095Z,100.00
2023-05-14T01:34:09.498Z,100.00
2023-05-14T01:36:36.372Z,100.00
2023-05-14T01:39:04.563Z,100.00
2023-05-14T01:41:32.396Z,100.00
2023-05-14T01:43:59.300Z,100.00
2023-05-14T01:46:26.186Z,100.00
2023-05-14T01:48:53.065Z,100.00
2023-05-14T01:51:20.001Z,100.00
2023-05-14T01:53:46.843Z,100.00
2023-05-14T01:56:13.735Z,100.00
2023-05-14T01:58:40.574Z,100.00
2023-05-14T02:01:07.475Z,100.00
2023-05-14T02:03:34.350Z,100.00
2023-05-14T02:06:01.197Z,100.00
2023-05-14T02:08:30.057Z,100.00
2023-05-14T02:10:56.899Z,100.00
2023-05-14T02:13:23.731Z,100.00
2023-05-14T02:15:50.820Z,100.00
2023-05-14T02:18:17.779Z,100.00
2023-05-14T02:20:44.698Z,100.00
2023-05-14T02:23:11.545Z,99.83
2023-05-14T02:25:38.401Z,100.00
2023-05-14T02:28:05.355Z,99.73
2023-05-14T02:30:32.216Z,100.00
2023-05-14T02:32:59.290Z,100.00
2023-05-14T02:35:26.192Z,100.00
2023-05-14T02:37:53.118Z,99.94
2023-05-14T02:40:19.990Z,99.65
2023-05-14T02:42:46.846Z,98.91
2023-05-14T02:45:13.712Z,96.70
2023-05-14T02:47:40.750Z,99.09
2023-05-14T02:50:08.383Z,100.00
2023-05-14T02:52:35.653Z,100.00
2023-05-14T02:55:02.920Z,100.00
2023-05-14T02:57:29.787Z,100.00
2023-05-14T02:59:56.632Z,100.00
2023-05-14T03:02:23.892Z,100.00
2023-05-14T03:04:51.270Z,100.00
2023-05-14T03:07:18.125Z,100.00
2023-05-14T03:09:45.966Z,100.00
2023-05-14T03:12:14.445Z,100.00
2023-05-14T03:14:41.318Z,100.00
2023-05-14T03:17:08.249Z,100.00
2023-05-14T03:19:35.145Z,100.00
2023-05-14T03:22:02.162Z,100.00
2023-05-14T03:24:29.004Z,100.00
2023-05-14T03:26:57.002Z,100.00
2023-05-14T03:29:23.808Z,100.00
2023-05-14T03:31:50.814Z,100.00
2023-05-14T03:34:17.724Z,100.00
2023-05-14T03:36:44.647Z,100.00
2023-05-14T03:39:11.559Z,100.00
2023-05-14T03:41:39.427Z,100.00
2023-05-14T03:44:06.505Z,100.00
2023-05-14T03:46:33.421Z,100.00
2023-05-14T03:49:00.329Z,100.00
2023-05-14T03:51:27.199Z,100.00
2023-05-14T03:53:54.026Z,100.00
2023-05-14T03:56:21.004Z,100.00
2023-05-14T03:58:47.835Z,100.00
2023-05-14T04:01:14.677Z,100.00
2023-05-14T04:03:41.806Z,100.00
2023-05-14T04:06:08.853Z,100.00
2023-05-14T04:08:35.817Z,100.00
2023-05-14T04:11:02.694Z,100.00
2023-05-14T04:13:31.750Z,100.00
2023-05-14T04:15:58.620Z,100.00
2023-05-14T04:18:27.616Z,100.00
2023-05-14T04:20:54.598Z,100.00
2023-05-14T04:23:22.046Z,100.00
2023-05-14T04:25:49.209Z,100.00
2023-05-14T04:28:16.129Z,100.00
2023-05-14T04:30:42.958Z,100.00
2023-05-14T04:33:10.470Z,100.00
2023-05-14T04:35:37.558Z,100.00
2023-05-14T04:38:04.415Z,100.00
2023-05-14T04:40:32.020Z,100.00
2023-05-14T04:42:58.873Z,100.00
2023-05-14T04:45:26.916Z,100.00
2023-05-14T04:47:53.888Z,100.00
2023-05-14T04:50:20.859Z,100.00
2023-05-14T04:52:47.932Z,100.00
2023-05-14T04:55:14.770Z,100.00
2023-05-14T04:57:41.655Z,100.00
2023-05-14T05:00:10.128Z,100.00
2023-05-14T05:02:37.072Z,100.00
2023-05-14T05:05:04.345Z,100.00
2023-05-14T05:07:31.298Z,100.00
2023-05-14T05:09:58.165Z,100.00
2023-05-14T05:12:25.003Z,100.00
2023-05-14T05:14:51.909Z,100.00
2023-05-14T05:17:18.786Z,100.00
2023-05-14T05:19:45.884Z,100.00
2023-05-14T05:22:12.814Z,100.00
2023-05-14T05:24:39.633Z,100.00
2023-05-14T05:27:06.638Z,100.00
2023-05-14T05:29:33.661Z,100.00
2023-05-14T05:32:00.745Z,100.00
2023-05-14T05:34:28.040Z,100.00
2023-05-14T05:36:54.898Z,100.00
2023-05-14T05:39:21.749Z,100.00
2023-05-14T05:41:48.624Z,100.00
2023-05-14T05:44:15.508Z,100.00
2023-05-14T05:46:42.376Z,100.00
2023-05-14T05:49:09.308Z,100.00
2023-05-14T05:51:36.330Z,100.00
2023-05-14T05:54:03.677Z,100.00
2023-05-14T05:56:30.946Z,100.00
2023-05-14T05:58:57.803Z,100.00
2023-05-14T06:01:24.681Z,100.00
2023-05-14T06:03:51.613Z,100.00
2023-05-14T06:06:18.475Z,100.00
2023-05-14T06:08:45.297Z,100.00
2023-05-14T06:11:12.109Z,100.00
2023-05-14T06:13:38.769Z,100.00
2023-05-14T06:16:05.805Z,100.00
2023-05-14T06:18:32.710Z,100.00
2023-05-14T06:21:00.419Z,100.00
2023-05-14T06:23:27.354Z,100.00
2023-05-14T06:25:54.310Z,100.00
2023-05-14T06:28:21.147Z,100.00
2023-05-14T06:30:50.535Z,100.00
2023-05-14T06:33:19.311Z,100.00
2023-05-14T06:35:47.353Z,100.00
2023-05-14T06:38:14.188Z,100.00
2023-05-14T06:40:41.069Z,100.00
2023-05-14T06:43:07.899Z,100.00
2023-05-14T06:45:34.748Z,100.00
2023-05-14T06:48:01.670Z,100.00
2023-05-14T06:50:28.643Z,100.00
2023-05-14T06:52:55.473Z,100.00
2023-05-14T06:55:22.420Z,100.00
2023-05-14T06:57:49.347Z,100.00
2023-05-14T07:00:16.907Z,100.00
2023-05-14T07:02:43.866Z,100.00
2023-05-14T07:05:11.253Z,100.00
2023-05-14T07:07:38.136Z,100.00
2023-05-14T07:10:05.929Z,100.00
2023-05-14T07:12:32.755Z,100.00
2023-05-14T07:14:59.593Z,100.00
2023-05-14T07:17:26.517Z,100.00
2023-05-14T07:19:55.657Z,100.00
2023-05-14T07:22:22.745Z,100.00
2023-05-14T07:24:50.321Z,100.00
2023-05-14T07:27:17.424Z,100.00
2023-05-14T07:29:44.768Z,100.00
2023-05-14T07:32:13.959Z,100.00
2023-05-14T07:34:42.840Z,100.00
2023-05-14T07:37:09.752Z,100.00
2023-05-14T07:39:36.613Z,100.00
2023-05-14T07:42:04.597Z,100.00
2023-05-14T07:44:31.420Z,100.00
2023-05-14T07:46:58.402Z,100.00
2023-05-14T07:49:25.440Z,100.00
2023-05-14T07:51:52.248Z,100.00
2023-05-14T07:54:19.152Z,100.00
2023-05-14T07:56:46.038Z,100.00
2023-05-14T07:59:12.900Z,100.00
2023-05-14T08:01:39.788Z,100.00
2023-05-14T08:04:06.726Z,100.00
2023-05-14T08:06:34.182Z,100.00
2023-05-14T08:09:01.068Z,100.00
2023-05-14T08:11:27.917Z,100.00
2023-05-14T08:13:54.754Z,100.00
2023-05-14T08:16:22.491Z,100.00
2023-05-14T08:18:49.444Z,100.00
2023-05-14T08:21:16.386Z,100.00
2023-05-14T08:23:43.227Z,100.00
2023-05-14T08:26:10.067Z,100.00
2023-05-14T08:28:36.913Z,100.00
2023-05-14T08:31:03.834Z,100.00
2023-05-14T08:33:30.687Z,100.00
2023-05-14T08:36:00.638Z,100.00
2023-05-14T08:38:27.504Z,100.00
2023-05-14T08:41:00.984Z,100.00
2023-05-14T08:43:31.409Z,100.00
2023-05-14T08:46:01.444Z,100.00
2023-05-14T08:48:38.031Z,100.00
2023-05-14T08:51:05.181Z,100.00
2023-05-14T08:53:32.044Z,100.00
2023-05-14T08:55:59.821Z,100.00
2023-05-14T08:58:27.770Z,100.00
2023-05-14T09:00:55.058Z,100.00
2023-05-14T09:03:23.301Z,100.00
2023-05-14T09:05:51.780Z,100.00
2023-05-14T09:08:19.020Z,100.00
2023-05-14T09:10:46.214Z,100.00
2023-05-14T09:13:13.171Z,100.00
2023-05-14T09:15:41.502Z,100.00
2023-05-14T09:18:08.532Z,100.00
2023-05-14T09:20:35.609Z,100.00
2023-05-14T09:23:02.613Z,100.00
2023-05-14T09:25:32.893Z,100.00
2023-05-14T09:27:59.777Z,100.00
2023-05-14T09:30:27.397Z,100.00
2023-05-14T09:32:55.155Z,100.00
2023-05-14T09:35:24.011Z,100.00
2023-05-14T09:37:52.706Z,100.00
2023-05-14T09:40:21.732Z,100.00
2023-05-14T09:42:49.585Z,100.00
2023-05-14T09:45:17.169Z,100.00
2023-05-14T09:47:45.289Z,100.00
2023-05-14T09:50:12.521Z,100.00
2023-05-14T09:52:39.744Z,100.00
2023-05-14T09:55:07.137Z,100.00
2023-05-14T09:57:34.702Z,100.00
2023-05-14T10:00:01.586Z,100.00
2023-05-14T10:02:41.397Z,100.00
2023-05-14T10:05:09.066Z,100.00
2023-05-14T10:07:40.501Z,100.00
2023-05-14T10:10:08.665Z,100.00
2023-05-14T10:12:38.664Z,100.00
2023-05-14T10:15:13.817Z,100.00
2023-05-14T10:17:41.485Z,100.00
2023-05-14T10:20:12.139Z,100.00
2023-05-14T10:22:39.304Z,100.00
2023-05-14T10:25:07.058Z,100.00
2023-05-14T10:27:34.184Z,100.00
2023-05-14T10:30:01.118Z,100.00
2023-05-14T10:32:28.572Z,100.00
2023-05-14T10:34:55.816Z,100.00
2023-05-14T10:37:24.245Z,100.00
2023-05-14T10:39:59.959Z,100.00
2023-05-14T10:42:28.923Z,100.00
2023-05-14T10:45:01.851Z,100.00
2023-05-14T10:47:32.244Z,100.00
2023-05-14T10:50:00.330Z,100.00
2023-05-14T10:52:27.348Z,100.00
2023-05-14T10:55:01.920Z,100.00
2023-05-14T10:57:31.822Z,100.00
2023-05-14T11:00:00.500Z,100.00
2023-05-14T11:02:28.814Z,100.00
2023-05-14T11:05:04.016Z,100.00
2023-05-14T11:07:33.266Z,100.00
2023-05-14T11:10:02.797Z,100.00
2023-05-14T11:12:30.058Z,100.00
2023-05-14T11:15:02.178Z,100.00
2023-05-14T11:17:30.065Z,100.00
2023-05-14T11:19:57.890Z,100.00
2023-05-14T11:22:25.506Z,100.00
2023-05-14T11:24:52.589Z,100.00
2023-05-14T11:27:20.151Z,100.00
2023-05-14T11:29:58.362Z,100.00
2023-05-14T11:32:26.282Z,100.00
2023-05-14T11:34:53.223Z,100.00
2023-05-14T11:37:20.447Z,100.00
2023-05-14T11:39:54.525Z,100.00
2023-05-14T11:42:22.491Z,100.00
2023-05-14T11:44:51.929Z,100.00
2023-05-14T11:47:20.040Z,100.00
2023-05-14T11:49:47.462Z,100.00
2023-05-14T11:52:15.439Z,100.00
2023-05-14T11:54:45.737Z,100.00
2023-05-14T11:57:14.874Z,100.00
2023-05-14T11:59:41.771Z,100.00
2023-05-14T12:02:16.201Z,100.00
2023-05-14T12:04:43.864Z,100.00
2023-05-14T12:07:17.287Z,100.00
2023-05-14T12:09:50.000Z,100.00
2023-05-14T12:12:25.736Z,100.00
2023-05-14T12:14:53.090Z,100.00
2023-05-14T12:17:21.598Z,100.00
2023-05-14T12:19:50.547Z,100.00
2023-05-14T12:22:19.738Z,100.00
2023-05-14T12:24:58.625Z,100.00
2023-05-14T12:27:27.763Z,100.00
2023-05-14T12:30:33.955Z,100.00
2023-05-14T12:32:53.034Z,100.00
2023-05-14T12:35:21.343Z,100.00
2023-05-14T12:37:48.418Z,100.00
2023-05-14T12:40:18.471Z,100.00
2023-05-14T12:42:45.517Z,100.00
2023-05-14T12:45:12.350Z,100.00
2023-05-14T12:47:39.198Z,100.00
2023-05-14T12:50:06.678Z,100.00
2023-05-14T12:52:38.693Z,100.00
2023-05-14T12:55:07.827Z,100.00
2023-05-14T12:57:35.731Z,100.00
2023-05-14T13:00:06.559Z,100.00
2023-05-14T13:02:33.528Z,100.00
2023-05-14T13:05:10.814Z,100.00
2023-05-14T13:07:37.854Z,100.00
2023-05-14T13:10:08.373Z,100.00
2023-05-14T13:12:35.518Z,100.00
2023-05-14T13:15:02.405Z,100.00
2023-05-14T13:17:29.344Z,100.00
2023-05-14T13:19:56.216Z,100.00
2023-05-14T13:22:23.064Z,100.00
2023-05-14T13:24:49.940Z,100.00
2023-05-14T13:27:16.781Z,100.00
2023-05-14T13:29:45.586Z,100.00
2023-05-14T13:32:12.475Z,100.00
2023-05-14T13:34:39.254Z,100.00
2023-05-14T13:37:07.502Z,100.00
2023-05-14T13:39:34.361Z,100.00
2023-05-14T13:42:01.538Z,100.00
2023-05-14T13:44:28.415Z,100.00
2023-05-14T13:46:55.380Z,100.00
2023-05-14T13:49:26.466Z,100.00
2023-05-14T13:51:53.309Z,100.00
2023-05-14T13:54:20.123Z,100.00
2023-05-14T13:56:46.966Z,100.00
2023-05-14T13:59:13.928Z,100.00
2023-05-14T14:01:43.353Z,100.00
2023-05-14T14:04:10.790Z,100.00
2023-05-14T14:06:37.631Z,100.00
2023-05-14T14:09:04.531Z,100.00
2023-05-14T14:11:31.455Z,100.00
2023-05-14T14:13:58.394Z,100.00
2023-05-14T14:16:25.261Z,100.00
2023-05-14T14:19:04.224Z,100.00
2023-05-14T14:21:31.943Z,100.00
2023-05-14T14:23:58.975Z,100.00
2023-05-14T14:26:28.040Z,100.00
2023-05-14T14:28:55.278Z,100.00
2023-05-14T14:31:22.314Z,100.00
2023-05-14T14:33:49.152Z,100.00
2023-05-14T14:36:15.989Z,100.00
2023-05-14T14:38:46.788Z,100.00
2023-05-14T14:41:13.734Z,100.00
2023-05-14T14:43:41.237Z,100.00
2023-05-14T14:46:10.847Z,100.00
2023-05-14T14:48:37.988Z,100.00
2023-05-14T14:51:08.208Z,100.00
2023-05-14T14:53:36.011Z,100.00
2023-05-14T14:56:03.236Z,100.00
2023-05-14T14:58:31.426Z,100.00
2023-05-14T15:00:58.636Z,100.00
2023-05-14T15:03:26.054Z,100.00
2023-05-14T15:05:53.877Z,100.00
2023-05-14T15:08:24.550Z,100.00
2023-05-14T15:10:51.413Z,100.00
2023-05-14T15:13:18.239Z,100.00
2023-05-14T15:15:45.089Z,100.00
2023-05-14T15:18:13.104Z,100.00
2023-05-14T15:20:40.171Z,100.00
2023-05-14T15:23:07.258Z,100.00
2023-05-14T15:25:34.094Z,100.00
2023-05-14T15:28:00.992Z,100.00
2023-05-14T15:30:27.970Z,100.00
2023-05-14T15:32:55.828Z,100.00
2023-05-14T15:35:23.034Z,100.00
2023-05-14T15:37:50.168Z,100.00
2023-05-14T15:40:17.068Z,100.00
2023-05-14T15:42:44.146Z,100.00
2023-05-14T15:45:12.784Z,100.00
2023-05-14T15:47:40.297Z,100.00
2023-05-14T15:50:27.501Z,100.00
2023-05-14T15:52:54.474Z,100.00
2023-05-14T15:55:21.447Z,100.00
2023-05-14T15:57:48.310Z,100.00
2023-05-14T16:00:15.471Z,100.00
2023-05-14T16:02:42.383Z,100.00
2023-05-14T16:05:09.467Z,100.00
2023-05-14T16:07:36.930Z,100.00
2023-05-14T16:10:04.212Z,100.00
2023-05-14T16:12:31.221Z,100.00
2023-05-14T16:14:58.214Z,100.00
2023-05-14T16:17:26.572Z,100.00
2023-05-14T16:19:56.307Z,100.00
2023-05-14T16:22:23.597Z,100.00
2023-05-14T16:24:50.482Z,100.00
2023-05-14T16:27:19.263Z,100.00
2023-05-14T16:29:49.331Z,100.00
2023-05-14T16:32:16.444Z,100.00
2023-05-14T16:34:49.773Z,100.00
2023-05-14T16:37:17.762Z,100.00
2023-05-14T16:39:47.657Z,100.00
2023-05-14T16:42:14.818Z,100.00
2023-05-14T16:44:41.682Z,100.00
2023-05-14T16:47:08.542Z,100.00
2023-05-14T16:49:35.441Z,100.00
2023-05-14T16:52:02.243Z,100.00
2023-05-14T16:54:29.062Z,100.00
2023-05-14T16:56:56.079Z,99.48
2023-05-14T16:59:23.003Z,99.75
2023-05-14T17:01:49.895Z,100.00
2023-05-14T17:04:17.990Z,100.00
2023-05-14T17:06:46.242Z,98.56
2023-05-14T17:09:13.102Z,100.00
2023-05-14T17:11:39.929Z,100.00
2023-05-14T17:14:06.771Z,100.00
2023-05-14T17:16:33.605Z,99.72
2023-05-14T17:19:00.500Z,99.26
2023-05-14T17:21:27.418Z,100.00
2023-05-14T17:23:54.212Z,100.00
2023-05-14T17:26:21.921Z,100.00
2023-05-14T17:28:48.849Z,100.00
2023-05-14T17:31:15.830Z,100.00
2023-05-14T17:33:42.708Z,100.00
2023-05-14T17:36:09.595Z,99.65
2023-05-14T17:38:37.503Z,96.73
2023-05-14T17:41:04.442Z,96.56
2023-05-14T17:43:31.420Z,100.00
2023-05-14T17:45:58.303Z,100.00
2023-05-14T17:48:26.205Z,100.00
2023-05-14T17:50:53.048Z,100.00
2023-05-14T17:53:20.039Z,100.00
2023-05-14T17:55:46.915Z,100.00
2023-05-14T17:58:15.627Z,100.00
2023-05-14T18:00:42.578Z,100.00
2023-05-14T18:03:10.549Z,100.00
2023-05-14T18:05:37.618Z,100.00
2023-05-14T18:08:06.620Z,100.00
2023-05-14T18:10:33.477Z,100.00
2023-05-14T18:13:00.308Z,100.00
2023-05-14T18:15:27.584Z,100.00
2023-05-14T18:17:54.690Z,100.00
2023-05-14T18:20:21.726Z,100.00
2023-05-14T18:22:49.486Z,100.00
2023-05-14T18:25:16.764Z,100.00
2023-05-14T18:27:45.137Z,100.00
2023-05-14T18:30:15.574Z,100.00
2023-05-14T18:32:44.353Z,100.00
2023-05-14T18:35:12.263Z,100.00
2023-05-14T18:37:39.130Z,97.75
2023-05-14T18:40:07.123Z,96.80
2023-05-14T18:42:34.790Z,98.57
2023-05-14T18:45:01.713Z,100.00
2023-05-14T18:47:28.595Z,100.00
2023-05-14T18:49:58.219Z,100.00
2023-05-14T18:52:26.357Z,100.00
2023-05-14T18:54:54.148Z,100.00
2023-05-14T18:57:21.498Z,100.00
2023-05-14T18:59:48.341Z,100.00
2023-05-14T19:02:15.179Z,100.00
2023-05-14T19:04:51.698Z,100.00
2023-05-14T19:07:22.745Z,100.00
2023-05-14T19:09:49.615Z,100.00
2023-05-14T19:12:16.579Z,100.00
2023-05-14T19:14:43.441Z,100.00
2023-05-14T19:17:10.302Z,100.00
2023-05-14T19:19:39.594Z,100.00
2023-05-14T19:22:06.970Z,100.00
2023-05-14T19:24:33.985Z,100.00
2023-05-14T19:27:01.119Z,100.00
2023-05-14T19:29:28.021Z,100.00
2023-05-14T19:31:54.954Z,100.00
2023-05-14T19:34:22.068Z,100.00
2023-05-14T19:36:48.901Z,100.00
2023-05-14T19:39:15.763Z,100.00
2023-05-14T19:41:42.635Z,100.00
2023-05-14T19:44:09.535Z,100.00
2023-05-14T19:46:36.563Z,100.00
2023-05-14T19:49:03.468Z,100.00
2023-05-14T19:51:30.308Z,100.00
2023-05-14T19:53:57.198Z,100.00
2023-05-14T19:56:25.716Z,100.00
2023-05-14T19:58:54.114Z,100.00
2023-05-14T20:01:21.165Z,100.00
2023-05-14T20:03:48.356Z,100.00
2023-05-14T20:06:15.251Z,100.00
2023-05-14T20:08:48.302Z,100.00
2023-05-14T20:11:15.877Z,100.00
2023-05-14T20:13:42.792Z,100.00
2023-05-14T20:16:09.666Z,100.00
2023-05-14T20:18:36.640Z,100.00
2023-05-14T20:21:04.015Z,100.00
2023-05-14T20:23:30.839Z,100.00
2023-05-14T20:25:57.666Z,100.00
2023-05-14T20:28:30.696Z,100.00
2023-05-14T20:30:59.110Z,100.00
2023-05-14T20:33:26.561Z,100.00
2023-05-14T20:35:53.613Z,96.71
2023-05-14T20:38:20.430Z,92.27
2023-05-14T20:40:48.041Z,90.73
2023-05-14T20:43:15.035Z,84.27
2023-05-14T20:45:41.882Z,84.34
2023-05-14T20:48:10.353Z,85.51
2023-05-14T20:50:37.217Z,83.50
2023-05-14T20:53:04.320Z,85.06
2023-05-14T20:55:31.212Z,86.39
2023-05-14T20:58:00.068Z,84.92
2023-05-14T21:00:26.959Z,83.42
2023-05-14T21:02:53.977Z,81.47
2023-05-14T21:05:21.028Z,82.88
2023-05-14T21:07:48.096Z,81.92
2023-05-14T21:10:15.038Z,78.63
2023-05-14T21:12:42.806Z,83.33
2023-05-14T21:15:10.847Z,87.69
2023-05-14T21:17:37.809Z,87.61
2023-05-14T21:20:04.998Z,90.95
2023-05-14T21:22:31.852Z,88.91
2023-05-14T21:24:58.694Z,93.75
2023-05-14T21:27:26.705Z,100.00
2023-05-14T21:29:53.610Z,100.00
2023-05-14T21:32:22.304Z,100.00
2023-05-14T21:34:49.290Z,100.00
2023-05-14T21:37:16.223Z,100.00
2023-05-14T21:39:43.047Z,94.32
2023-05-14T21:42:10.083Z,84.22
2023-05-14T21:44:36.989Z,88.08
2023-05-14T21:47:04.552Z,81.50
2023-05-14T21:49:31.380Z,83.13
2023-05-14T21:51:58.261Z,83.43
2023-05-14T21:54:25.074Z,79.42
2023-05-14T21:56:51.946Z,81.57
2023-05-14T21:59:24.537Z,79.92
2023-05-14T22:02:06.227Z,77.49
2023-05-14T22:04:34.211Z,77.98
2023-05-14T22:07:01.653Z,75.28
2023-05-14T22:09:28.999Z,77.83
2023-05-14T22:11:56.695Z,77.17
2023-05-14T22:14:23.490Z,78.02
2023-05-14T22:16:50.381Z,79.75
2023-05-14T22:19:17.439Z,80.25
2023-05-14T22:21:44.413Z,79.59
2023-05-14T22:24:11.201Z,80.15
2023-05-14T22:26:38.045Z,80.08
2023-05-14T22:29:04.918Z,81.44
2023-05-14T22:31:31.835Z,83.79
2023-05-14T22:33:58.704Z,84.35
2023-05-14T22:36:25.580Z,85.96
2023-05-14T22:38:52.546Z,88.05
2023-05-14T22:41:19.890Z,90.10
2023-05-14T22:43:49.364Z,94.28
2023-05-14T22:46:16.381Z,91.92
2023-05-14T22:48:43.252Z,92.75
2023-05-14T22:51:10.095Z,95.42
2023-05-14T22:53:36.945Z,98.33
2023-05-14T22:56:03.955Z,100.00
2023-05-14T22:58:30.881Z,100.00
2023-05-14T23:00:57.854Z,95.64
2023-05-14T23:03:24.737Z,95.01
2023-05-14T23:05:52.267Z,93.88
2023-05-14T23:08:19.133Z,93.28
2023-05-14T23:10:45.981Z,92.90
2023-05-14T23:13:12.847Z,90.51
2023-05-14T23:15:39.746Z,88.92
2023-05-14T23:18:13.616Z,86.14
2023-05-14T23:20:40.905Z,86.00
2023-05-14T23:23:07.742Z,84.41
2023-05-14T23:25:34.560Z,79.62
2023-05-14T23:28:01.397Z,74.18
2023-05-14T23:30:28.386Z,79.88
2023-05-14T23:32:55.304Z,79.87
2023-05-14T23:35:22.228Z,78.82
2023-05-14T23:37:51.080Z,79.33
2023-05-14T23:40:18.214Z,80.99
2023-05-14T23:42:45.092Z,78.53
2023-05-14T23:45:12.786Z,77.45
2023-05-14T23:47:40.518Z,76.25
2023-05-14T23:50:07.716Z,77.33
2023-05-14T23:52:34.560Z,75.10
2023-05-14T23:55:01.420Z,77.36
2023-05-14T23:57:28.481Z,77.45
2023-05-14T23:59:57.436Z,75.55
